createdAt,value
2023-03-19T00:01:07.716Z,55.94
2023-03-19T00:03:01.411Z,56.01
2023-03-19T00:04:25.596Z,56.07
2023-03-19T00:05:50.058Z,56.08
2023-03-19T00:07:25.529Z,56.22
2023-03-19T00:08:57.673Z,56.23
2023-03-19T00:10:19.311Z,56.48
2023-03-19T00:11:43.627Z,56.44
2023-03-19T00:13:24.520Z,56.42
2023-03-19T00:14:53.267Z,56.54
2023-03-19T00:16:27.192Z,56.56
2023-03-19T00:18:07.467Z,56.74
2023-03-19T00:19:46.736Z,57.13
2023-03-19T00:21:08.080Z,56.98
2023-03-19T00:22:41.918Z,56.93
2023-03-19T00:24:30.622Z,57.07
2023-03-19T00:25:55.000Z,57.27
2023-03-19T00:27:35.773Z,57.35
2023-03-19T00:29:18.810Z,57.32
2023-03-19T00:30:54.261Z,57.50
2023-03-19T00:32:48.869Z,57.63
2023-03-19T00:34:22.302Z,57.61
2023-03-19T00:35:44.078Z,57.79
2023-03-19T00:37:17.235Z,57.69
2023-03-19T00:38:58.253Z,57.87
2023-03-19T00:40:34.565Z,57.77
2023-03-19T00:42:19.372Z,57.93
2023-03-19T00:44:12.831Z,58.01
2023-03-19T00:45:58.171Z,58.22
2023-03-19T00:47:34.283Z,58.05
2023-03-19T00:49:07.755Z,58.18
2023-03-19T00:50:50.801Z,58.19
2023-03-19T00:52:22.386Z,58.67
2023-03-19T00:53:48.812Z,58.35
2023-03-19T00:55:29.160Z,58.24
2023-03-19T00:57:02.617Z,58.55
2023-03-19T00:58:38.632Z,58.35
2023-03-19T01:00:05.046Z,58.37
2023-03-19T01:01:38.745Z,58.45
2023-03-19T01:03:11.752Z,58.40
2023-03-19T01:04:59.930Z,58.51
2023-03-19T01:06:36.676Z,59.11
2023-03-19T01:08:17.395Z,58.99
2023-03-19T01:10:11.797Z,59.23
2023-03-19T01:12:05.605Z,59.57
2023-03-19T01:13:39.729Z,59.65
2023-03-19T01:15:24.354Z,59.76
2023-03-19T01:17:05.041Z,59.89
2023-03-19T01:18:40.258Z,59.85
2023-03-19T01:20:25.767Z,59.86
2023-03-19T01:22:06.349Z,59.89
2023-03-19T01:23:41.325Z,59.87
2023-03-19T01:25:26.115Z,59.72
2023-03-19T01:27:19.924Z,59.67
2023-03-19T01:29:00.520Z,59.73
2023-03-19T01:30:45.803Z,59.84
2023-03-19T01:32:41.710Z,59.95
2023-03-19T01:34:41.234Z,59.77
2023-03-19T01:36:18.365Z,59.85
2023-03-19T01:38:17.901Z,60.05
2023-03-19T01:40:04.820Z,59.75
2023-03-19T01:41:39.120Z,59.81
2023-03-19T01:43:26.941Z,59.82
2023-03-19T01:45:15.563Z,59.70
2023-03-19T01:47:14.772Z,59.64
2023-03-19T01:49:11.073Z,59.73
2023-03-19T01:50:56.697Z,59.67
2023-03-19T01:53:02.802Z,59.66
2023-03-19T01:55:39.790Z,59.60
2023-03-19T01:57:07.703Z,59.57
2023-03-19T01:58:48.554Z,59.55
2023-03-19T02:00:23.547Z,59.76
2023-03-19T02:02:02.134Z,59.72
2023-03-19T02:03:35.279Z,59.69
2023-03-19T02:05:26.551Z,59.69
2023-03-19T02:07:13.362Z,59.59
2023-03-19T02:09:01.872Z,59.68
2023-03-19T02:10:47.409Z,59.74
2023-03-19T02:12:32.053Z,59.83
2023-03-19T02:14:16.725Z,59.96
2023-03-19T02:16:02.664Z,59.92
2023-03-19T02:17:36.657Z,59.93
2023-03-19T02:19:05.932Z,59.85
2023-03-19T02:20:55.372Z,59.95
2023-03-19T02:24:40.980Z,59.98
2023-03-19T02:26:21.336Z,60.00
2023-03-19T02:28:09.330Z,60.15
2023-03-19T02:29:43.315Z,60.09
2023-03-19T02:31:28.505Z,60.07
2023-03-19T02:33:19.445Z,60.23
2023-03-19T02:34:52.800Z,60.19
2023-03-19T02:36:37.931Z,60.16
2023-03-19T02:38:22.569Z,60.21
2023-03-19T02:40:16.605Z,60.32
2023-03-19T02:42:02.203Z,60.19
2023-03-19T02:43:57.768Z,60.30
2023-03-19T02:45:23.904Z,60.40
2023-03-19T02:47:00.150Z,60.42
2023-03-19T02:48:49.805Z,60.47
2023-03-19T02:50:30.770Z,60.88
2023-03-19T02:52:04.288Z,61.05
2023-03-19T02:53:40.052Z,61.17
2023-03-19T02:55:24.989Z,61.09
2023-03-19T02:57:12.504Z,61.23
2023-03-19T02:59:06.005Z,61.43
2023-03-19T03:00:47.740Z,61.50
2023-03-19T03:02:16.407Z,61.70
2023-03-19T03:04:01.934Z,61.54
2023-03-19T03:05:33.878Z,61.66
2023-03-19T03:06:55.613Z,61.44
2023-03-19T03:08:28.810Z,61.47
2023-03-19T03:10:14.533Z,61.52
2023-03-19T03:11:55.030Z,61.49
2023-03-19T03:13:48.297Z,61.55
2023-03-19T03:15:21.759Z,61.63
2023-03-19T03:17:06.885Z,61.67
2023-03-19T03:18:51.259Z,61.58
2023-03-19T03:20:21.491Z,61.70
2023-03-19T03:21:57.547Z,61.73
2023-03-19T03:23:22.064Z,61.81
2023-03-19T03:25:11.246Z,61.77
2023-03-19T03:26:54.624Z,61.73
2023-03-19T03:28:49.890Z,61.94
2023-03-19T03:30:11.544Z,61.93
2023-03-19T03:31:51.273Z,61.98
2023-03-19T03:33:20.342Z,62.03
2023-03-19T03:35:01.079Z,62.18
2023-03-19T03:36:50.886Z,62.33
2023-03-19T03:38:40.134Z,62.18
2023-03-19T03:40:25.971Z,62.26
2023-03-19T03:41:52.251Z,62.31
2023-03-19T03:43:36.265Z,62.49
2023-03-19T03:45:16.183Z,63.37
2023-03-19T03:46:51.912Z,60.79
2023-03-19T03:48:25.347Z,56.21
2023-03-19T03:50:10.742Z,53.12
2023-03-19T03:51:52.820Z,53.01
2023-03-19T03:53:38.033Z,53.85
2023-03-19T03:55:14.139Z,54.69
2023-03-19T03:57:02.750Z,55.54
2023-03-19T03:58:39.469Z,56.22
2023-03-19T04:00:11.155Z,56.71
2023-03-19T04:01:38.335Z,57.25
2023-03-19T04:03:14.398Z,57.55
2023-03-19T04:04:48.903Z,58.09
2023-03-19T04:06:22.617Z,58.33
2023-03-19T04:08:13.520Z,58.70
2023-03-19T04:10:03.141Z,58.92
2023-03-19T04:11:51.272Z,59.26
2023-03-19T04:13:40.222Z,59.66
2023-03-19T04:15:15.944Z,59.94
2023-03-19T04:16:40.377Z,60.45
2023-03-19T04:18:15.774Z,60.45
2023-03-19T04:20:03.285Z,60.50
2023-03-19T04:21:36.506Z,60.59
2023-03-19T04:23:21.533Z,60.72
2023-03-19T04:24:55.240Z,60.99
2023-03-19T04:26:40.393Z,61.12
2023-03-19T04:28:14.027Z,61.20
2023-03-19T04:29:59.576Z,61.42
2023-03-19T04:31:35.672Z,61.54
2023-03-19T04:33:11.306Z,61.57
2023-03-19T04:34:53.390Z,61.74
2023-03-19T04:36:42.013Z,61.79
2023-03-19T04:38:26.769Z,61.96
2023-03-19T04:40:01.084Z,61.92
2023-03-19T04:41:47.144Z,62.04
2023-03-19T04:43:41.446Z,62.07
2023-03-19T04:45:16.605Z,62.13
2023-03-19T04:47:10.601Z,62.13
2023-03-19T04:49:13.812Z,62.18
2023-03-19T04:50:59.491Z,62.39
2023-03-19T04:52:45.079Z,62.56
2023-03-19T04:54:35.467Z,63.56
2023-03-19T04:56:16.095Z,60.31
2023-03-19T04:58:09.888Z,55.07
2023-03-19T04:59:55.442Z,53.07
2023-03-19T05:01:31.131Z,53.46
2023-03-19T05:03:14.184Z,54.40
2023-03-19T05:05:00.669Z,55.39
2023-03-19T05:06:36.913Z,56.13
2023-03-19T05:08:10.006Z,56.78
2023-03-19T05:10:03.702Z,57.22
2023-03-19T05:11:39.097Z,57.84
2023-03-19T05:13:07.928Z,57.98
2023-03-19T05:14:55.775Z,58.40
2023-03-19T05:16:45.807Z,58.78
2023-03-19T05:18:31.784Z,59.02
2023-03-19T05:20:17.083Z,59.23
2023-03-19T05:22:07.459Z,59.43
2023-03-19T05:24:01.005Z,59.72
2023-03-19T05:25:44.301Z,60.01
2023-03-19T05:27:18.242Z,60.17
2023-03-19T05:29:03.566Z,60.31
2023-03-19T05:30:55.577Z,60.58
2023-03-19T05:32:33.252Z,60.57
2023-03-19T05:34:19.488Z,60.55
2023-03-19T05:36:12.941Z,61.13
2023-03-19T05:38:01.434Z,61.12
2023-03-19T05:39:23.925Z,60.84
2023-03-19T05:40:57.830Z,60.89
2023-03-19T05:42:39.108Z,60.89
2023-03-19T05:44:20.979Z,60.98
2023-03-19T05:46:07.152Z,61.03
2023-03-19T05:47:51.593Z,61.16
2023-03-19T05:49:28.377Z,61.01
2023-03-19T05:51:02.262Z,60.91
2023-03-19T05:52:43.643Z,60.95
2023-03-19T05:54:24.435Z,60.98
2023-03-19T05:56:19.446Z,61.12
2023-03-19T05:58:13.483Z,60.96
2023-03-19T06:00:01.825Z,60.87
2023-03-19T06:01:41.009Z,60.76
2023-03-19T06:03:16.372Z,60.89
2023-03-19T06:04:57.448Z,60.79
2023-03-19T06:06:35.499Z,60.88
2023-03-19T06:08:16.187Z,61.05
2023-03-19T06:10:02.080Z,60.99
2023-03-19T06:11:56.199Z,61.07
2023-03-19T06:13:51.214Z,61.16
2023-03-19T06:15:28.782Z,61.13
2023-03-19T06:17:23.021Z,61.10
2023-03-19T06:19:07.910Z,61.09
2023-03-19T06:20:35.564Z,61.15
2023-03-19T06:22:11.338Z,61.05
2023-03-19T06:23:35.806Z,61.17
2023-03-19T06:25:11.845Z,60.96
2023-03-19T06:26:37.315Z,60.87
2023-03-19T06:28:26.308Z,61.04
2023-03-19T06:30:10.485Z,61.21
2023-03-19T06:31:44.286Z,60.90
2023-03-19T06:33:43.411Z,60.85
2023-03-19T06:35:18.151Z,60.76
2023-03-19T06:37:00.373Z,60.76
2023-03-19T06:38:29.574Z,60.64
2023-03-19T06:40:15.026Z,60.65
2023-03-19T06:42:09.901Z,60.64
2023-03-19T06:43:51.520Z,60.48
2023-03-19T06:45:25.929Z,60.40
2023-03-19T06:46:59.494Z,60.17
2023-03-19T06:48:26.361Z,60.23
2023-03-19T06:50:03.396Z,60.13
2023-03-19T06:51:51.517Z,60.03
2023-03-19T06:53:37.128Z,59.78
2023-03-19T06:55:17.776Z,59.86
2023-03-19T06:56:59.371Z,59.66
2023-03-19T06:58:35.818Z,59.35
2023-03-19T07:00:11.666Z,59.50
2023-03-19T07:01:53.436Z,59.00
2023-03-19T07:03:47.345Z,58.81
2023-03-19T07:05:31.914Z,58.85
2023-03-19T07:07:06.031Z,58.63
2023-03-19T07:08:51.298Z,58.69
2023-03-19T07:10:32.301Z,58.53
2023-03-19T07:12:08.782Z,58.25
2023-03-19T07:13:44.958Z,58.02
2023-03-19T07:15:30.497Z,58.23
2023-03-19T07:17:16.069Z,57.81
2023-03-19T07:18:51.967Z,57.26
2023-03-19T07:20:37.305Z,57.21
2023-03-19T07:22:19.857Z,56.60
2023-03-19T07:24:03.882Z,56.58
2023-03-19T07:25:49.608Z,56.43
2023-03-19T07:27:20.929Z,55.95
2023-03-19T07:28:57.655Z,55.72
2023-03-19T07:30:42.181Z,55.58
2023-03-19T07:32:23.790Z,55.53
2023-03-19T07:34:09.382Z,55.40
2023-03-19T07:35:46.011Z,55.15
2023-03-19T07:37:21.298Z,55.34
2023-03-19T07:39:07.636Z,55.34
2023-03-19T07:41:02.264Z,55.17
2023-03-19T07:42:38.459Z,55.37
2023-03-19T07:44:03.237Z,55.19
2023-03-19T07:45:36.960Z,54.92
2023-03-19T07:47:27.971Z,54.90
2023-03-19T07:49:09.729Z,54.30
2023-03-19T07:50:50.871Z,53.95
2023-03-19T07:52:26.669Z,53.88
2023-03-19T07:54:01.051Z,53.47
2023-03-19T07:55:42.518Z,53.42
2023-03-19T07:57:15.726Z,53.20
2023-03-19T07:58:48.177Z,53.38
2023-03-19T08:00:37.412Z,52.84
2023-03-19T08:02:13.300Z,52.38
2023-03-19T08:03:49.015Z,52.32
2023-03-19T08:05:34.216Z,52.10
2023-03-19T08:07:19.779Z,51.92
2023-03-19T08:09:14.846Z,51.32
2023-03-19T08:10:56.259Z,51.24
2023-03-19T08:12:41.780Z,50.78
2023-03-19T08:14:23.391Z,51.00
2023-03-19T08:16:08.113Z,51.09
2023-03-19T08:17:53.561Z,51.06
2023-03-19T08:19:41.176Z,50.74
2023-03-19T08:21:14.900Z,50.82
2023-03-19T08:23:00.400Z,50.47
2023-03-19T08:24:41.363Z,50.30
2023-03-19T08:26:05.583Z,50.18
2023-03-19T08:27:43.239Z,50.08
2023-03-19T08:29:18.935Z,50.21
2023-03-19T08:31:04.782Z,49.89
2023-03-19T08:32:50.486Z,49.29
2023-03-19T08:34:14.642Z,49.16
2023-03-19T08:35:50.631Z,49.04
2023-03-19T08:37:23.541Z,49.14
2023-03-19T08:39:11.945Z,49.16
2023-03-19T08:40:57.537Z,48.96
2023-03-19T08:42:45.032Z,49.09
2023-03-19T08:44:30.459Z,49.12
2023-03-19T08:46:15.736Z,48.45
2023-03-19T08:47:57.647Z,48.29
2023-03-19T08:49:32.921Z,48.33
2023-03-19T08:51:08.810Z,47.73
2023-03-19T08:52:55.231Z,47.69
2023-03-19T08:54:44.165Z,47.18
2023-03-19T08:56:17.276Z,47.38
2023-03-19T08:58:10.600Z,47.26
2023-03-19T08:59:35.095Z,47.71
2023-03-19T09:01:10.586Z,46.95
2023-03-19T09:02:52.082Z,46.44
2023-03-19T09:04:37.529Z,45.99
2023-03-19T09:06:22.500Z,45.72
2023-03-19T09:08:14.532Z,45.57
2023-03-19T09:09:51.806Z,45.48
2023-03-19T09:11:27.840Z,44.87
2023-03-19T09:13:07.988Z,45.14
2023-03-19T09:14:53.879Z,45.10
2023-03-19T09:16:47.287Z,44.90
2023-03-19T09:18:13.702Z,44.64
2023-03-19T09:19:45.372Z,44.32
2023-03-19T09:21:18.683Z,44.19
2023-03-19T09:23:13.912Z,43.97
2023-03-19T09:24:47.361Z,43.95
2023-03-19T09:26:20.798Z,43.57
2023-03-19T09:28:05.896Z,43.65
2023-03-19T09:29:51.438Z,43.87
2023-03-19T09:31:29.536Z,43.94
2023-03-19T09:33:11.242Z,43.76
2023-03-19T09:34:47.174Z,43.73
2023-03-19T09:36:11.231Z,43.85
2023-03-19T09:37:57.020Z,43.30
2023-03-19T09:39:51.450Z,42.88
2023-03-19T09:41:27.589Z,42.92
2023-03-19T09:43:16.996Z,43.09
2023-03-19T09:44:46.203Z,43.08
2023-03-19T09:46:22.946Z,43.09
2023-03-19T09:48:07.829Z,43.00
2023-03-19T09:49:53.118Z,42.88
2023-03-19T09:51:39.932Z,42.75
2023-03-19T09:53:15.867Z,42.80
2023-03-19T09:55:09.917Z,42.90
2023-03-19T09:56:45.612Z,43.01
2023-03-19T09:58:18.945Z,43.37
2023-03-19T10:00:08.132Z,42.75
2023-03-19T10:01:53.449Z,43.15
2023-03-19T10:03:38.607Z,43.00
2023-03-19T10:05:23.250Z,42.28
2023-03-19T10:07:08.733Z,41.73
2023-03-19T10:08:54.241Z,41.68
2023-03-19T10:10:47.600Z,41.25
2023-03-19T10:12:32.794Z,40.77
2023-03-19T10:14:18.055Z,40.82
2023-03-19T10:15:50.366Z,41.17
2023-03-19T10:17:35.806Z,41.01
2023-03-19T10:19:17.893Z,41.06
2023-03-19T10:21:05.866Z,41.30
2023-03-19T10:22:51.348Z,41.36
2023-03-19T10:24:24.237Z,41.24
2023-03-19T10:25:57.555Z,40.63
2023-03-19T10:27:18.994Z,40.95
2023-03-19T10:28:54.813Z,41.07
2023-03-19T10:30:39.321Z,41.62
2023-03-19T10:32:19.509Z,41.21
2023-03-19T10:34:04.990Z,40.65
2023-03-19T10:35:50.488Z,39.51
2023-03-19T10:37:35.225Z,38.90
2023-03-19T10:39:20.217Z,38.83
2023-03-19T10:41:13.784Z,38.30
2023-03-19T10:42:38.116Z,38.40
2023-03-19T10:44:12.947Z,38.21
2023-03-19T10:45:57.443Z,39.55
2023-03-19T10:47:30.713Z,39.49
2023-03-19T10:49:07.269Z,39.55
2023-03-19T10:50:53.613Z,39.22
2023-03-19T10:52:29.019Z,38.83
2023-03-19T10:54:02.201Z,38.97
2023-03-19T10:55:31.318Z,39.02
2023-03-19T10:57:16.611Z,38.53
2023-03-19T10:59:01.998Z,38.48
2023-03-19T11:00:49.921Z,38.30
2023-03-19T11:02:31.275Z,38.17
2023-03-19T11:03:55.784Z,37.77
2023-03-19T11:05:19.510Z,37.85
2023-03-19T11:06:57.276Z,38.19
2023-03-19T11:08:35.783Z,37.84
2023-03-19T11:10:13.025Z,37.87
2023-03-19T11:11:44.174Z,37.91
2023-03-19T11:13:08.161Z,37.06
2023-03-19T11:14:44.471Z,37.18
2023-03-19T11:16:05.998Z,37.29
2023-03-19T11:17:47.455Z,37.93
2023-03-19T11:19:09.370Z,37.07
2023-03-19T11:20:55.801Z,36.85
2023-03-19T11:22:24.683Z,36.37
2023-03-19T11:24:07.808Z,36.37
2023-03-19T11:25:50.781Z,36.26
2023-03-19T11:27:37.016Z,35.91
2023-03-19T11:29:21.347Z,35.47
2023-03-19T11:30:58.825Z,35.52
2023-03-19T11:32:34.813Z,36.21
2023-03-19T11:34:15.498Z,36.63
2023-03-19T11:35:37.781Z,36.36
2023-03-19T11:37:22.495Z,34.73
2023-03-19T11:39:07.656Z,34.49
2023-03-19T11:40:41.299Z,33.96
2023-03-19T11:42:22.359Z,34.07
2023-03-19T11:43:51.590Z,34.27
2023-03-19T11:45:39.134Z,34.77
2023-03-19T11:47:06.834Z,35.17
2023-03-19T11:48:39.597Z,35.32
2023-03-19T11:50:20.189Z,36.36
2023-03-19T11:51:59.883Z,36.09
2023-03-19T11:53:40.785Z,35.05
2023-03-19T11:55:14.233Z,34.83
2023-03-19T11:56:36.430Z,35.73
2023-03-19T11:58:11.956Z,35.68
2023-03-19T11:59:36.398Z,34.90
2023-03-19T12:01:10.446Z,34.68
2023-03-19T12:02:44.155Z,34.36
2023-03-19T12:04:17.600Z,34.13
2023-03-19T12:05:57.967Z,33.51
2023-03-19T12:07:42.588Z,33.89
2023-03-19T12:09:15.627Z,33.89
2023-03-19T12:10:49.121Z,33.34
2023-03-19T12:12:11.135Z,32.87
2023-03-19T12:13:37.795Z,32.89
2023-03-19T12:15:04.381Z,33.57
2023-03-19T12:16:46.547Z,33.41
2023-03-19T12:18:22.536Z,33.14
2023-03-19T12:19:49.006Z,32.72
2023-03-19T12:21:24.533Z,32.23
2023-03-19T12:23:09.799Z,32.46
2023-03-19T12:24:54.804Z,32.80
2023-03-19T12:26:30.334Z,33.00
2023-03-19T12:27:52.500Z,33.18
2023-03-19T12:29:26.604Z,33.50
2023-03-19T12:30:48.557Z,32.09
2023-03-19T12:32:22.045Z,32.18
2023-03-19T12:33:58.279Z,31.89
2023-03-19T12:35:43.722Z,32.26
2023-03-19T12:37:08.147Z,32.49
2023-03-19T12:38:48.807Z,32.05
2023-03-19T12:40:17.643Z,31.97
2023-03-19T12:42:03.045Z,31.70
2023-03-19T12:43:38.926Z,31.87
2023-03-19T12:45:14.590Z,30.97
2023-03-19T12:46:44.215Z,31.09
2023-03-19T12:48:29.073Z,32.05
2023-03-19T12:50:14.354Z,32.55
2023-03-19T12:51:43.703Z,33.19
2023-03-19T12:53:28.225Z,33.19
2023-03-19T12:55:14.721Z,33.46
2023-03-19T12:56:59.897Z,34.29
2023-03-19T12:58:35.654Z,33.72
2023-03-19T13:00:20.263Z,34.21
2023-03-19T13:01:54.144Z,33.62
2023-03-19T13:03:23.710Z,33.19
2023-03-19T13:04:57.517Z,33.66
2023-03-19T13:06:33.742Z,33.09
2023-03-19T13:08:07.230Z,32.91
2023-03-19T13:09:40.824Z,32.46
2023-03-19T13:11:16.341Z,33.17
2023-03-19T13:12:42.655Z,33.19
2023-03-19T13:14:27.719Z,33.06
2023-03-19T13:16:03.708Z,33.40
2023-03-19T13:17:57.303Z,33.03
2023-03-19T13:19:38.310Z,32.84
2023-03-19T13:21:11.667Z,33.16
2023-03-19T13:22:57.948Z,33.05
2023-03-19T13:24:43.270Z,33.75
2023-03-19T13:26:16.426Z,33.39
2023-03-19T13:28:05.703Z,33.68
2023-03-19T13:29:46.923Z,34.08
2023-03-19T13:31:40.313Z,33.97
2023-03-19T13:33:13.595Z,34.72
2023-03-19T13:34:59.071Z,34.84
2023-03-19T13:36:53.816Z,34.63
2023-03-19T13:38:27.251Z,34.89
2023-03-19T13:40:12.645Z,35.31
2023-03-19T13:41:41.845Z,35.09
2023-03-19T13:43:27.415Z,34.86
2023-03-19T13:45:13.606Z,34.98
2023-03-19T13:46:49.924Z,35.24
2023-03-19T13:48:26.428Z,35.25
2023-03-19T13:50:19.934Z,35.90
2023-03-19T13:52:13.333Z,35.82
2023-03-19T13:53:56.844Z,36.17
2023-03-19T13:55:42.262Z,36.80
2023-03-19T13:57:18.659Z,36.13
2023-03-19T13:59:01.555Z,36.23
2023-03-19T14:00:35.681Z,36.73
2023-03-19T14:02:05.188Z,37.31
2023-03-19T14:03:26.878Z,36.79
2023-03-19T14:05:03.625Z,36.80
2023-03-19T14:06:39.818Z,37.50
2023-03-19T14:08:03.774Z,37.91
2023-03-19T14:09:39.937Z,38.93
2023-03-19T14:11:24.542Z,39.24
2023-03-19T14:13:09.327Z,38.58
2023-03-19T14:14:33.884Z,38.88
2023-03-19T14:16:14.682Z,37.72
2023-03-19T14:17:50.312Z,37.55
2023-03-19T14:19:44.822Z,38.13
2023-03-19T14:21:21.820Z,38.60
2023-03-19T14:23:05.790Z,38.00
2023-03-19T14:26:21.076Z,35.77
2023-03-19T14:27:54.612Z,35.28
2023-03-19T14:29:18.659Z,34.80
2023-03-19T14:31:12.852Z,35.75
2023-03-19T14:32:57.865Z,35.05
2023-03-19T14:34:28.878Z,34.62
2023-03-19T14:36:14.129Z,34.87
2023-03-19T14:37:55.886Z,35.02
2023-03-19T14:39:29.118Z,34.72
2023-03-19T14:41:05.633Z,34.98
2023-03-19T14:42:43.354Z,34.71
2023-03-19T14:44:16.742Z,35.57
2023-03-19T14:46:06.849Z,35.29
2023-03-19T14:47:42.085Z,35.23
2023-03-19T14:49:12.865Z,35.25
2023-03-19T14:52:39.712Z,35.10
2023-03-19T14:54:24.402Z,34.98
2023-03-19T14:55:56.133Z,35.21
2023-03-19T14:57:17.816Z,35.48
2023-03-19T14:59:03.704Z,36.54
2023-03-19T15:00:33.027Z,36.58
2023-03-19T15:02:04.240Z,36.69
2023-03-19T15:03:38.170Z,37.01
2023-03-19T15:05:13.602Z,35.94
2023-03-19T15:06:54.477Z,35.95
2023-03-19T15:08:34.889Z,35.97
2023-03-19T15:10:08.540Z,36.00
2023-03-19T15:11:50.390Z,36.72
2023-03-19T15:13:23.537Z,36.10
2023-03-19T15:14:45.830Z,36.27
2023-03-19T15:16:19.016Z,36.46
2023-03-19T15:18:03.126Z,36.28
2023-03-19T15:19:37.824Z,36.91
2023-03-19T15:21:22.531Z,37.18
2023-03-19T15:22:52.280Z,37.87
2023-03-19T15:24:26.964Z,38.14
2023-03-19T15:26:03.001Z,38.62
2023-03-19T15:27:39.450Z,38.82
2023-03-19T15:29:20.274Z,38.55
2023-03-19T15:31:12.447Z,38.12
2023-03-19T15:33:07.947Z,38.82
2023-03-19T15:34:32.649Z,39.03
2023-03-19T15:36:19.247Z,38.18
2023-03-19T15:37:49.020Z,38.80
2023-03-19T15:39:20.685Z,39.37
2023-03-19T15:40:54.945Z,39.63
2023-03-19T15:42:31.554Z,39.83
2023-03-19T15:44:16.884Z,39.74
2023-03-19T15:45:51.806Z,40.28
2023-03-19T15:47:21.055Z,39.74
2023-03-19T15:49:06.501Z,39.43
2023-03-19T15:50:33.778Z,39.47
2023-03-19T15:52:10.151Z,40.20
2023-03-19T15:53:55.488Z,40.21
2023-03-19T15:55:46.107Z,40.64
2023-03-19T15:57:22.027Z,41.02
2023-03-19T15:59:07.238Z,40.88
2023-03-19T16:00:53.104Z,41.02
2023-03-19T16:02:38.193Z,41.31
2023-03-19T16:04:11.700Z,42.14
2023-03-19T16:05:36.105Z,42.46
2023-03-19T16:07:11.564Z,42.91
2023-03-19T16:08:56.596Z,43.59
2023-03-19T16:10:42.098Z,43.36
2023-03-19T16:12:27.249Z,43.53
2023-03-19T16:13:51.044Z,44.15
2023-03-19T16:15:31.863Z,44.62
2023-03-19T16:17:07.687Z,45.00
2023-03-19T16:19:02.887Z,45.17
2023-03-19T16:20:49.551Z,45.49
2023-03-19T16:22:23.224Z,45.26
2023-03-19T16:23:56.758Z,45.78
2023-03-19T16:25:42.311Z,45.72
2023-03-19T16:27:04.318Z,45.87
2023-03-19T16:28:28.527Z,46.72
2023-03-19T16:30:05.184Z,46.84
2023-03-19T16:31:54.894Z,47.21
2023-03-19T16:33:28.906Z,47.56
2023-03-19T16:35:15.149Z,47.75
2023-03-19T16:36:44.560Z,47.39
2023-03-19T16:38:15.752Z,47.63
2023-03-19T16:39:49.340Z,48.08
2023-03-19T16:41:34.113Z,48.32
2023-03-19T16:43:19.206Z,48.71
2023-03-19T16:45:01.199Z,47.92
2023-03-19T16:46:34.760Z,48.75
2023-03-19T16:48:03.816Z,48.19
2023-03-19T16:49:44.619Z,48.98
2023-03-19T16:51:08.596Z,48.90
2023-03-19T16:52:42.250Z,49.65
2023-03-19T16:54:20.729Z,50.01
2023-03-19T16:55:52.136Z,50.34
2023-03-19T16:57:27.692Z,50.56
2023-03-19T16:59:04.479Z,50.75
2023-03-19T17:00:41.019Z,50.88
2023-03-19T17:02:04.926Z,50.69
2023-03-19T17:03:38.512Z,50.60
2023-03-19T17:05:12.392Z,50.78
2023-03-19T17:06:55.881Z,51.19
2023-03-19T17:08:50.903Z,51.97
2023-03-19T17:10:24.289Z,51.42
2023-03-19T17:11:46.848Z,51.11
2023-03-19T17:13:20.908Z,50.58
2023-03-19T17:15:15.866Z,50.79
2023-03-19T17:17:02.859Z,52.13
2023-03-19T17:18:44.710Z,52.32
2023-03-19T17:20:18.038Z,52.92
2023-03-19T17:22:12.864Z,53.45
2023-03-19T17:23:53.742Z,53.39
2023-03-19T17:25:30.146Z,53.80
2023-03-19T17:27:15.284Z,54.08
2023-03-19T17:28:48.864Z,53.93
2023-03-19T17:30:13.048Z,54.28
2023-03-19T17:31:35.189Z,54.74
2023-03-19T17:33:08.596Z,55.17
2023-03-19T17:34:54.037Z,54.89
2023-03-19T17:36:25.797Z,55.35
2023-03-19T17:37:59.206Z,55.60
2023-03-19T17:39:21.345Z,55.66
2023-03-19T17:40:55.335Z,55.62
2023-03-19T17:42:37.876Z,55.67
2023-03-19T17:44:03.186Z,55.90
2023-03-19T17:45:49.238Z,56.47
2023-03-19T17:47:22.304Z,56.66
2023-03-19T17:48:55.450Z,56.57
2023-03-19T17:50:28.664Z,56.97
2023-03-19T17:52:14.241Z,56.93
2023-03-19T17:53:50.960Z,57.00
2023-03-19T17:55:24.577Z,57.14
2023-03-19T17:56:58.386Z,57.23
2023-03-19T17:58:31.978Z,57.27
2023-03-19T18:00:06.460Z,57.69
2023-03-19T18:01:53.180Z,57.79
2023-03-19T18:03:28.410Z,57.80
2023-03-19T18:04:52.451Z,57.91
2023-03-19T18:06:33.839Z,57.86
2023-03-19T18:08:03.301Z,57.67
2023-03-19T18:09:25.823Z,57.59
2023-03-19T18:10:59.387Z,57.16
2023-03-19T18:12:30.501Z,57.56
2023-03-19T18:14:17.087Z,57.97
2023-03-19T18:15:41.220Z,58.19
2023-03-19T18:17:05.090Z,58.31
2023-03-19T18:18:38.921Z,58.40
2023-03-19T18:20:13.565Z,58.43
2023-03-19T18:21:38.198Z,58.20
2023-03-19T18:23:00.376Z,57.94
2023-03-19T18:24:21.686Z,58.03
2023-03-19T18:25:43.987Z,57.59
2023-03-19T18:27:08.137Z,57.39
2023-03-19T18:28:30.191Z,57.45
2023-03-19T18:30:04.704Z,57.79
2023-03-19T18:31:58.116Z,57.54
2023-03-19T18:33:31.654Z,58.02
2023-03-19T18:35:05.304Z,58.42
2023-03-19T18:36:29.712Z,58.80
2023-03-19T18:38:14.891Z,57.79
2023-03-19T18:39:48.607Z,58.43
2023-03-19T18:41:21.440Z,58.50
2023-03-19T18:43:01.192Z,58.07
2023-03-19T18:44:33.995Z,58.37
2023-03-19T18:46:16.438Z,58.27
2023-03-19T18:48:03.486Z,57.92
2023-03-19T18:49:45.948Z,58.07
2023-03-19T18:51:22.017Z,58.08
2023-03-19T18:52:58.381Z,58.63
2023-03-19T18:54:33.710Z,59.25
2023-03-19T18:56:08.732Z,59.81
2023-03-19T18:57:30.710Z,59.93
2023-03-19T18:58:55.344Z,59.87
2023-03-19T19:00:28.791Z,60.01
2023-03-19T19:02:10.629Z,60.22
2023-03-19T19:03:55.811Z,59.67
2023-03-19T19:05:17.244Z,59.95
2023-03-19T19:06:47.851Z,60.07
2023-03-19T19:08:33.161Z,59.67
2023-03-19T19:10:05.264Z,59.88
2023-03-19T19:11:38.972Z,59.85
2023-03-19T19:13:08.184Z,59.48
2023-03-19T19:14:39.556Z,59.98
2023-03-19T19:16:06.488Z,60.28
2023-03-19T19:17:29.627Z,60.23
2023-03-19T19:18:56.386Z,60.33
2023-03-19T19:20:30.158Z,60.34
2023-03-19T19:22:06.206Z,60.64
2023-03-19T19:24:00.901Z,60.69
2023-03-19T19:25:22.705Z,60.75
2023-03-19T19:26:58.400Z,60.71
2023-03-19T19:28:27.997Z,60.79
2023-03-19T19:29:54.382Z,60.78
2023-03-19T19:31:27.823Z,60.96
2023-03-19T19:32:56.766Z,60.87
2023-03-19T19:34:30.371Z,60.86
2023-03-19T19:36:11.272Z,61.10
2023-03-19T19:37:56.347Z,60.99
2023-03-19T19:39:50.900Z,61.45
2023-03-19T19:41:24.123Z,61.43
2023-03-19T19:43:04.711Z,61.58
2023-03-19T19:44:28.829Z,61.64
2023-03-19T19:46:04.785Z,61.66
2023-03-19T19:47:58.118Z,61.66
2023-03-19T19:49:31.163Z,61.78
2023-03-19T19:51:04.457Z,61.62
2023-03-19T19:52:38.338Z,61.61
2023-03-19T19:54:13.678Z,61.59
2023-03-19T19:55:56.897Z,61.56
2023-03-19T19:57:21.306Z,61.39
2023-03-19T19:58:54.862Z,61.39
2023-03-19T20:00:36.030Z,61.44
2023-03-19T20:02:17.431Z,61.38
2023-03-19T20:03:42.311Z,61.23
2023-03-19T20:05:27.557Z,61.52
2023-03-19T20:08:51.250Z,61.77
2023-03-19T20:10:27.368Z,61.56
2023-03-19T20:12:20.656Z,61.73
2023-03-19T20:13:56.774Z,61.66
2023-03-19T20:15:38.135Z,61.39
2023-03-19T20:17:16.841Z,61.84
2023-03-19T20:18:54.963Z,62.17
2023-03-19T20:20:48.127Z,62.41
2023-03-19T20:22:33.341Z,62.33
2023-03-19T20:24:15.009Z,62.88
2023-03-19T20:25:39.467Z,62.38
2023-03-19T20:27:08.535Z,59.33
2023-03-19T20:28:35.670Z,54.90
2023-03-19T20:30:03.714Z,53.16
2023-03-19T20:31:44.742Z,53.41
2023-03-19T20:33:09.227Z,54.31
2023-03-19T20:34:44.929Z,54.81
2023-03-19T20:36:20.454Z,55.26
2023-03-19T20:37:42.302Z,56.22
2023-03-19T20:39:06.866Z,56.04
2023-03-19T20:40:40.725Z,56.25
2023-03-19T20:42:13.885Z,56.59
2023-03-19T20:43:49.445Z,56.90
2023-03-19T20:45:22.890Z,57.50
2023-03-19T20:47:00.123Z,57.95
2023-03-19T20:48:23.859Z,57.70
2023-03-19T20:50:06.879Z,57.83
2023-03-19T20:51:33.635Z,57.98
2023-03-19T20:53:06.433Z,58.12
2023-03-19T20:54:30.854Z,58.66
2023-03-19T20:55:54.798Z,58.53
2023-03-19T20:57:18.859Z,58.58
2023-03-19T20:58:43.389Z,58.57
2023-03-19T21:00:16.857Z,58.68
2023-03-19T21:01:52.821Z,58.72
2023-03-19T21:03:19.213Z,58.85
2023-03-19T21:04:56.835Z,58.91
2023-03-19T21:06:20.815Z,58.99
2023-03-19T21:07:45.280Z,59.06
2023-03-19T21:09:09.118Z,59.09
2023-03-19T21:10:43.047Z,59.07
2023-03-19T21:12:23.893Z,59.20
2023-03-19T21:14:04.626Z,59.23
2023-03-19T21:15:50.175Z,59.29
2023-03-19T21:17:23.468Z,59.32